sensor_id;sensor_type;location;lat;lon;timestamp;P1;durP1;ratioP1;P2;durP2;ratioP2
54899;SDS011;40801;41.924;25.562;2023-04-30T00:00:02;8.93;;;8.02;;
54899;SDS011;40801;41.924;25.562;2023-04-30T00:02:32;8.40;;;7.63;;
54899;SDS011;40801;41.924;25.562;2023-04-30T00:04:58;8.50;;;7.85;;
54899;SDS011;40801;41.924;25.562;2023-04-30T00:07:23;8.13;;;7.50;;
54899;SDS011;40801;41.924;25.562;2023-04-30T00:09:48;8.35;;;7.63;;
54899;SDS011;40801;41.924;25.562;2023-04-30T00:12:15;8.75;;;8.05;;
54899;SDS011;40801;41.924;25.562;2023-04-30T00:14:40;7.93;;;7.32;;
54899;SDS011;40801;41.924;25.562;2023-04-30T00:17:06;8.75;;;7.95;;
54899;SDS011;40801;41.924;25.562;2023-04-30T00:19:31;8.55;;;7.85;;
54899;SDS011;40801;41.924;25.562;2023-04-30T00:21:56;8.60;;;8.00;;
54899;SDS011;40801;41.924;25.562;2023-04-30T00:24:22;8.60;;;7.97;;
54899;SDS011;40801;41.924;25.562;2023-04-30T00:26:47;8.45;;;7.85;;
54899;SDS011;40801;41.924;25.562;2023-04-30T00:29:13;8.57;;;7.78;;
54899;SDS011;40801;41.924;25.562;2023-04-30T00:31:38;8.63;;;7.82;;
54899;SDS011;40801;41.924;25.562;2023-04-30T00:34:03;8.80;;;8.10;;
54899;SDS011;40801;41.924;25.562;2023-04-30T00:36:29;8.30;;;7.63;;
54899;SDS011;40801;41.924;25.562;2023-04-30T00:38:55;8.13;;;7.53;;
54899;SDS011;40801;41.924;25.562;2023-04-30T00:41:21;8.35;;;7.57;;
54899;SDS011;40801;41.924;25.562;2023-04-30T00:43:47;8.25;;;7.45;;
54899;SDS011;40801;41.924;25.562;2023-04-30T00:46:12;8.25;;;7.43;;
54899;SDS011;40801;41.924;25.562;2023-04-30T00:48:38;7.93;;;7.40;;
54899;SDS011;40801;41.924;25.562;2023-04-30T00:51:03;8.85;;;8.15;;
54899;SDS011;40801;41.924;25.562;2023-04-30T00:53:30;8.23;;;7.53;;
54899;SDS011;40801;41.924;25.562;2023-04-30T00:55:56;7.85;;;7.15;;
54899;SDS011;40801;41.924;25.562;2023-04-30T00:58:22;8.57;;;7.80;;
54899;SDS011;40801;41.924;25.562;2023-04-30T01:00:47;8.23;;;7.63;;
54899;SDS011;40801;41.924;25.562;2023-04-30T01:03:13;8.38;;;7.75;;
54899;SDS011;40801;41.924;25.562;2023-04-30T01:05:40;8.38;;;7.65;;
54899;SDS011;40801;41.924;25.562;2023-04-30T01:08:05;7.30;;;6.80;;
54899;SDS011;40801;41.924;25.562;2023-04-30T01:10:34;8.77;;;7.90;;
54899;SDS011;40801;41.924;25.562;2023-04-30T01:13:11;8.80;;;7.97;;
54899;SDS011;40801;41.924;25.562;2023-04-30T01:18:42;8.93;;;8.13;;
54899;SDS011;40801;41.924;25.562;2023-04-30T01:21:13;8.45;;;7.80;;
54899;SDS011;40801;41.924;25.562;2023-04-30T01:26:48;8.65;;;8.00;;
54899;SDS011;40801;41.924;25.562;2023-04-30T01:29:23;9.05;;;8.30;;
54899;SDS011;40801;41.924;25.562;2023-04-30T01:31:51;8.05;;;7.25;;
54899;SDS011;40801;41.924;25.562;2023-04-30T01:34:16;9.48;;;8.35;;
54899;SDS011;40801;41.924;25.562;2023-04-30T01:44:56;9.13;;;8.30;;
54899;SDS011;40801;41.924;25.562;2023-04-30T01:47:55;9.55;;;8.57;;
54899;SDS011;40801;41.924;25.562;2023-04-30T01:53:15;8.70;;;7.95;;
54899;SDS011;40801;41.924;25.562;2023-04-30T01:55:50;10.82;;;9.85;;
54899;SDS011;40801;41.924;25.562;2023-04-30T01:58:36;11.13;;;10.23;;
54899;SDS011;40801;41.924;25.562;2023-04-30T02:01:04;11.57;;;10.50;;
54899;SDS011;40801;41.924;25.562;2023-04-30T02:03:31;11.55;;;10.65;;
54899;SDS011;40801;41.924;25.562;2023-04-30T02:05:56;12.50;;;11.25;;
54899;SDS011;40801;41.924;25.562;2023-04-30T02:08:23;11.98;;;10.95;;
54899;SDS011;40801;41.924;25.562;2023-04-30T02:10:48;12.90;;;11.50;;
54899;SDS011;40801;41.924;25.562;2023-04-30T02:13:14;12.85;;;11.43;;
54899;SDS011;40801;41.924;25.562;2023-04-30T02:15:39;14.52;;;11.45;;
54899;SDS011;40801;41.924;25.562;2023-04-30T02:18:05;13.55;;;12.15;;
54899;SDS011;40801;41.924;25.562;2023-04-30T02:20:30;11.35;;;10.45;;
54899;SDS011;40801;41.924;25.562;2023-04-30T02:22:56;11.82;;;10.93;;
54899;SDS011;40801;41.924;25.562;2023-04-30T02:25:21;10.43;;;9.45;;
54899;SDS011;40801;41.924;25.562;2023-04-30T02:27:47;10.38;;;9.38;;
54899;SDS011;40801;41.924;25.562;2023-04-30T02:30:14;10.35;;;9.35;;
54899;SDS011;40801;41.924;25.562;2023-04-30T02:32:39;10.48;;;9.48;;
54899;SDS011;40801;41.924;25.562;2023-04-30T02:35:05;11.77;;;10.68;;
54899;SDS011;40801;41.924;25.562;2023-04-30T02:37:30;11.75;;;10.60;;
54899;SDS011;40801;41.924;25.562;2023-04-30T02:39:56;10.95;;;9.95;;
54899;SDS011;40801;41.924;25.562;2023-04-30T02:42:21;12.70;;;11.50;;
54899;SDS011;40801;41.924;25.562;2023-04-30T02:44:47;12.07;;;11.18;;
54899;SDS011;40801;41.924;25.562;2023-04-30T02:47:12;13.45;;;12.05;;
54899;SDS011;40801;41.924;25.562;2023-04-30T02:49:37;11.57;;;10.50;;
54899;SDS011;40801;41.924;25.562;2023-04-30T02:52:04;11.65;;;10.55;;
54899;SDS011;40801;41.924;25.562;2023-04-30T02:54:30;13.02;;;11.77;;
54899;SDS011;40801;41.924;25.562;2023-04-30T02:56:55;12.77;;;11.48;;
54899;SDS011;40801;41.924;25.562;2023-04-30T02:59:20;12.13;;;11.13;;
54899;SDS011;40801;41.924;25.562;2023-04-30T03:01:46;12.57;;;11.48;;
54899;SDS011;40801;41.924;25.562;2023-04-30T03:04:11;13.95;;;11.30;;
54899;SDS011;40801;41.924;25.562;2023-04-30T03:06:36;11.07;;;10.18;;
54899;SDS011;40801;41.924;25.562;2023-04-30T03:09:02;9.18;;;8.32;;
54899;SDS011;40801;41.924;25.562;2023-04-30T03:11:27;10.93;;;9.23;;
54899;SDS011;40801;41.924;25.562;2023-04-30T03:13:53;10.23;;;9.30;;
54899;SDS011;40801;41.924;25.562;2023-04-30T03:16:19;11.35;;;9.43;;
54899;SDS011;40801;41.924;25.562;2023-04-30T03:18:48;10.73;;;9.63;;
54899;SDS011;40801;41.924;25.562;2023-04-30T03:21:13;10.85;;;9.75;;
54899;SDS011;40801;41.924;25.562;2023-04-30T03:23:39;10.20;;;9.27;;
54899;SDS011;40801;41.924;25.562;2023-04-30T03:26:05;10.48;;;9.50;;
54899;SDS011;40801;41.924;25.562;2023-04-30T03:28:30;12.57;;;9.73;;
54899;SDS011;40801;41.924;25.562;2023-04-30T03:30:56;10.95;;;9.85;;
54899;SDS011;40801;41.924;25.562;2023-04-30T03:33:23;11.55;;;10.35;;
54899;SDS011;40801;41.924;25.562;2023-04-30T03:35:48;10.63;;;9.57;;
54899;SDS011;40801;41.924;25.562;2023-04-30T03:38:14;12.00;;;10.90;;
54899;SDS011;40801;41.924;25.562;2023-04-30T03:40:39;11.75;;;10.68;;
54899;SDS011;40801;41.924;25.562;2023-04-30T03:43:05;10.80;;;9.90;;
54899;SDS011;40801;41.924;25.562;2023-04-30T03:45:30;11.10;;;9.93;;
54899;SDS011;40801;41.924;25.562;2023-04-30T03:47:56;11.35;;;10.30;;
54899;SDS011;40801;41.924;25.562;2023-04-30T03:50:21;10.55;;;9.65;;
54899;SDS011;40801;41.924;25.562;2023-04-30T03:52:46;10.55;;;9.55;;
54899;SDS011;40801;41.924;25.562;2023-04-30T03:55:12;10.98;;;10.07;;
54899;SDS011;40801;41.924;25.562;2023-04-30T03:57:37;9.98;;;9.07;;
54899;SDS011;40801;41.924;25.562;2023-04-30T04:00:05;11.25;;;10.25;;
54899;SDS011;40801;41.924;25.562;2023-04-30T04:02:37;12.48;;;11.30;;
54899;SDS011;40801;41.924;25.562;2023-04-30T04:05:03;11.48;;;10.52;;
54899;SDS011;40801;41.924;25.562;2023-04-30T04:07:29;11.55;;;10.55;;
54899;SDS011;40801;41.924;25.562;2023-04-30T04:09:55;10.98;;;10.10;;
54899;SDS011;40801;41.924;25.562;2023-04-30T04:12:20;10.45;;;9.65;;
54899;SDS011;40801;41.924;25.562;2023-04-30T04:14:46;10.75;;;9.82;;
54899;SDS011;40801;41.924;25.562;2023-04-30T04:17:11;11.75;;;10.55;;
54899;SDS011;40801;41.924;25.562;2023-04-30T04:19:38;11.45;;;10.38;;
54899;SDS011;40801;41.924;25.562;2023-04-30T04:22:03;11.55;;;10.48;;
54899;SDS011;40801;41.924;25.562;2023-04-30T04:24:28;11.73;;;10.77;;
54899;SDS011;40801;41.924;25.562;2023-04-30T04:26:54;11.70;;;10.70;;
54899;SDS011;40801;41.924;25.562;2023-04-30T04:29:20;11.95;;;10.85;;
54899;SDS011;40801;41.924;25.562;2023-04-30T04:31:45;13.02;;;11.73;;
54899;SDS011;40801;41.924;25.562;2023-04-30T04:34:13;12.25;;;11.05;;
54899;SDS011;40801;41.924;25.562;2023-04-30T04:36:38;12.55;;;11.45;;
54899;SDS011;40801;41.924;25.562;2023-04-30T04:39:04;13.35;;;12.20;;
54899;SDS011;40801;41.924;25.562;2023-04-30T04:41:30;13.05;;;11.70;;
54899;SDS011;40801;41.924;25.562;2023-04-30T04:44:00;14.15;;;12.18;;
54899;SDS011;40801;41.924;25.562;2023-04-30T04:46:26;13.75;;;12.45;;
54899;SDS011;40801;41.924;25.562;2023-04-30T04:48:52;13.27;;;11.98;;
54899;SDS011;40801;41.924;25.562;2023-04-30T04:51:18;12.38;;;11.25;;
54899;SDS011;40801;41.924;25.562;2023-04-30T04:53:43;12.95;;;11.85;;
54899;SDS011;40801;41.924;25.562;2023-04-30T04:56:09;12.90;;;11.57;;
54899;SDS011;40801;41.924;25.562;2023-04-30T04:58:34;14.00;;;12.60;;
54899;SDS011;40801;41.924;25.562;2023-04-30T05:01:00;11.57;;;10.50;;
54899;SDS011;40801;41.924;25.562;2023-04-30T05:03:29;13.48;;;12.27;;
54899;SDS011;40801;41.924;25.562;2023-04-30T05:05:55;13.52;;;12.13;;
54899;SDS011;40801;41.924;25.562;2023-04-30T05:08:20;13.45;;;12.25;;
54899;SDS011;40801;41.924;25.562;2023-04-30T05:10:46;13.20;;;12.00;;
54899;SDS011;40801;41.924;25.562;2023-04-30T05:13:11;13.00;;;11.80;;
54899;SDS011;40801;41.924;25.562;2023-04-30T05:15:36;13.65;;;12.05;;
54899;SDS011;40801;41.924;25.562;2023-04-30T05:18:02;12.20;;;11.25;;
54899;SDS011;40801;41.924;25.562;2023-04-30T05:20:27;16.58;;;14.90;;
54899;SDS011;40801;41.924;25.562;2023-04-30T05:22:53;13.38;;;11.93;;
54899;SDS011;40801;41.924;25.562;2023-04-30T05:25:18;12.25;;;11.27;;
54899;SDS011;40801;41.924;25.562;2023-04-30T05:27:44;11.68;;;10.57;;
54899;SDS011;40801;41.924;25.562;2023-04-30T05:30:10;11.90;;;10.82;;
54899;SDS011;40801;41.924;25.562;2023-04-30T05:32:35;12.80;;;11.63;;
54899;SDS011;40801;41.924;25.562;2023-04-30T05:35:01;13.48;;;12.15;;
54899;SDS011;40801;41.924;25.562;2023-04-30T05:37:26;13.95;;;12.63;;
54899;SDS011;40801;41.924;25.562;2023-04-30T05:39:52;14.68;;;13.20;;
54899;SDS011;40801;41.924;25.562;2023-04-30T05:42:18;13.75;;;12.43;;
54899;SDS011;40801;41.924;25.562;2023-04-30T05:44:44;12.27;;;11.18;;
54899;SDS011;40801;41.924;25.562;2023-04-30T05:47:10;12.10;;;11.02;;
54899;SDS011;40801;41.924;25.562;2023-04-30T05:49:35;11.95;;;10.82;;
54899;SDS011;40801;41.924;25.562;2023-04-30T05:52:01;11.77;;;10.85;;
54899;SDS011;40801;41.924;25.562;2023-04-30T05:54:27;11.40;;;10.30;;
54899;SDS011;40801;41.924;25.562;2023-04-30T05:56:53;11.43;;;10.48;;
54899;SDS011;40801;41.924;25.562;2023-04-30T05:59:19;12.70;;;10.13;;
54899;SDS011;40801;41.924;25.562;2023-04-30T06:01:44;10.93;;;10.02;;
54899;SDS011;40801;41.924;25.562;2023-04-30T06:04:10;11.02;;;9.90;;
54899;SDS011;40801;41.924;25.562;2023-04-30T06:06:35;9.13;;;8.32;;
54899;SDS011;40801;41.924;25.562;2023-04-30T06:09:01;9.45;;;8.65;;
54899;SDS011;40801;41.924;25.562;2023-04-30T06:11:26;9.88;;;8.90;;
54899;SDS011;40801;41.924;25.562;2023-04-30T06:13:53;9.27;;;8.55;;
54899;SDS011;40801;41.924;25.562;2023-04-30T06:16:18;9.88;;;8.93;;
54899;SDS011;40801;41.924;25.562;2023-04-30T06:18:44;10.20;;;9.20;;
54899;SDS011;40801;41.924;25.562;2023-04-30T06:21:10;9.98;;;9.00;;
54899;SDS011;40801;41.924;25.562;2023-04-30T06:23:35;9.77;;;8.88;;
54899;SDS011;40801;41.924;25.562;2023-04-30T06:26:01;9.48;;;8.57;;
54899;SDS011;40801;41.924;25.562;2023-04-30T06:28:27;9.20;;;7.75;;
54899;SDS011;40801;41.924;25.562;2023-04-30T06:30:53;10.18;;;8.35;;
54899;SDS011;40801;41.924;25.562;2023-04-30T06:33:19;9.52;;;8.07;;
54899;SDS011;40801;41.924;25.562;2023-04-30T06:35:45;8.13;;;7.43;;
54899;SDS011;40801;41.924;25.562;2023-04-30T06:38:10;7.88;;;7.22;;
54899;SDS011;40801;41.924;25.562;2023-04-30T06:40:36;7.90;;;7.32;;
54899;SDS011;40801;41.924;25.562;2023-04-30T06:43:01;8.63;;;8.02;;
54899;SDS011;40801;41.924;25.562;2023-04-30T06:45:27;9.18;;;8.38;;
54899;SDS011;40801;41.924;25.562;2023-04-30T06:47:53;9.60;;;8.48;;
54899;SDS011;40801;41.924;25.562;2023-04-30T06:50:18;8.98;;;8.07;;
54899;SDS011;40801;41.924;25.562;2023-04-30T06:52:45;9.07;;;7.60;;
54899;SDS011;40801;41.924;25.562;2023-04-30T06:55:10;10.10;;;9.18;;
54899;SDS011;40801;41.924;25.562;2023-04-30T06:57:36;10.32;;;9.32;;
54899;SDS011;40801;41.924;25.562;2023-04-30T07:00:05;10.18;;;9.13;;
54899;SDS011;40801;41.924;25.562;2023-04-30T07:02:31;10.00;;;9.10;;
54899;SDS011;40801;41.924;25.562;2023-04-30T07:04:56;9.20;;;8.23;;
54899;SDS011;40801;41.924;25.562;2023-04-30T07:07:22;9.73;;;8.95;;
54899;SDS011;40801;41.924;25.562;2023-04-30T07:09:47;8.77;;;7.97;;
54899;SDS011;40801;41.924;25.562;2023-04-30T07:12:13;8.70;;;7.93;;
54899;SDS011;40801;41.924;25.562;2023-04-30T07:14:38;8.10;;;7.25;;
54899;SDS011;40801;41.924;25.562;2023-04-30T07:17:04;7.82;;;7.10;;
54899;SDS011;40801;41.924;25.562;2023-04-30T07:19:30;9.10;;;8.18;;
54899;SDS011;40801;41.924;25.562;2023-04-30T07:21:56;7.88;;;7.10;;
54899;SDS011;40801;41.924;25.562;2023-04-30T07:24:22;8.20;;;7.40;;
54899;SDS011;40801;41.924;25.562;2023-04-30T07:26:47;8.38;;;7.68;;
54899;SDS011;40801;41.924;25.562;2023-04-30T07:29:12;9.23;;;8.35;;
54899;SDS011;40801;41.924;25.562;2023-04-30T07:31:38;7.80;;;7.20;;
54899;SDS011;40801;41.924;25.562;2023-04-30T07:34:03;9.63;;;8.13;;
54899;SDS011;40801;41.924;25.562;2023-04-30T07:36:28;8.38;;;7.53;;
54899;SDS011;40801;41.924;25.562;2023-04-30T07:38:55;8.02;;;7.32;;
54899;SDS011;40801;41.924;25.562;2023-04-30T07:41:20;7.90;;;6.68;;
54899;SDS011;40801;41.924;25.562;2023-04-30T07:43:45;8.38;;;7.68;;
54899;SDS011;40801;41.924;25.562;2023-04-30T07:46:11;7.25;;;6.55;;
54899;SDS011;40801;41.924;25.562;2023-04-30T07:48:36;7.93;;;7.25;;
54899;SDS011;40801;41.924;25.562;2023-04-30T07:51:02;8.38;;;6.97;;
54899;SDS011;40801;41.924;25.562;2023-04-30T07:53:29;7.53;;;6.78;;
54899;SDS011;40801;41.924;25.562;2023-04-30T07:55:54;6.90;;;6.32;;
54899;SDS011;40801;41.924;25.562;2023-04-30T07:58:20;7.40;;;6.72;;
54899;SDS011;40801;41.924;25.562;2023-04-30T08:00:45;7.68;;;6.97;;
54899;SDS011;40801;41.924;25.562;2023-04-30T08:03:11;7.25;;;6.65;;
54899;SDS011;40801;41.924;25.562;2023-04-30T08:05:37;7.68;;;7.03;;
54899;SDS011;40801;41.924;25.562;2023-04-30T08:08:02;9.07;;;6.80;;
54899;SDS011;40801;41.924;25.562;2023-04-30T08:10:28;7.55;;;6.85;;
54899;SDS011;40801;41.924;25.562;2023-04-30T08:12:53;7.07;;;6.47;;
54899;SDS011;40801;41.924;25.562;2023-04-30T08:15:19;7.60;;;6.90;;
54899;SDS011;40801;41.924;25.562;2023-04-30T08:17:50;6.40;;;5.85;;
54899;SDS011;40801;41.924;25.562;2023-04-30T08:20:16;8.00;;;6.13;;
54899;SDS011;40801;41.924;25.562;2023-04-30T08:22:41;7.57;;;4.93;;
54899;SDS011;40801;41.924;25.562;2023-04-30T08:25:09;7.15;;;5.65;;
54899;SDS011;40801;41.924;25.562;2023-04-30T08:27:36;4.78;;;4.25;;
54899;SDS011;40801;41.924;25.562;2023-04-30T08:30:01;4.43;;;4.03;;
54899;SDS011;40801;41.924;25.562;2023-04-30T08:32:27;5.55;;;3.92;;
54899;SDS011;40801;41.924;25.562;2023-04-30T08:34:53;6.75;;;4.32;;
54899;SDS011;40801;41.924;25.562;2023-04-30T08:37:19;6.13;;;4.45;;
54899;SDS011;40801;41.924;25.562;2023-04-30T08:39:44;4.20;;;3.83;;
54899;SDS011;40801;41.924;25.562;2023-04-30T08:42:11;4.30;;;3.90;;
54899;SDS011;40801;41.924;25.562;2023-04-30T08:47:07;4.03;;;3.63;;
54899;SDS011;40801;41.924;25.562;2023-04-30T08:49:37;4.57;;;4.18;;
54899;SDS011;40801;41.924;25.562;2023-04-30T08:52:03;4.15;;;3.78;;
54899;SDS011;40801;41.924;25.562;2023-04-30T08:54:31;4.82;;;4.35;;
54899;SDS011;40801;41.924;25.562;2023-04-30T08:56:59;4.28;;;3.88;;
54899;SDS011;40801;41.924;25.562;2023-04-30T08:59:25;4.72;;;4.03;;
54899;SDS011;40801;41.924;25.562;2023-04-30T09:01:51;5.13;;;4.00;;
54899;SDS011;40801;41.924;25.562;2023-04-30T09:04:16;4.35;;;3.95;;
54899;SDS011;40801;41.924;25.562;2023-04-30T09:06:42;4.28;;;3.97;;
54899;SDS011;40801;41.924;25.562;2023-04-30T09:09:11;4.03;;;3.70;;
54899;SDS011;40801;41.924;25.562;2023-04-30T09:11:38;5.60;;;4.43;;
54899;SDS011;40801;41.924;25.562;2023-04-30T09:14:03;4.38;;;4.07;;
54899;SDS011;40801;41.924;25.562;2023-04-30T09:16:29;3.97;;;3.67;;
54899;SDS011;40801;41.924;25.562;2023-04-30T09:19:21;4.72;;;4.28;;
54899;SDS011;40801;41.924;25.562;2023-04-30T09:21:47;4.00;;;3.70;;
54899;SDS011;40801;41.924;25.562;2023-04-30T09:24:12;7.03;;;4.10;;
54899;SDS011;40801;41.924;25.562;2023-04-30T09:26:38;5.72;;;3.90;;
54899;SDS011;40801;41.924;25.562;2023-04-30T09:29:04;3.78;;;3.58;;
54899;SDS011;40801;41.924;25.562;2023-04-30T09:31:34;4.10;;;3.80;;
54899;SDS011;40801;41.924;25.562;2023-04-30T09:34:00;4.18;;;3.78;;
54899;SDS011;40801;41.924;25.562;2023-04-30T09:36:26;4.22;;;3.92;;
54899;SDS011;40801;41.924;25.562;2023-04-30T09:38:52;4.63;;;4.22;;
54899;SDS011;40801;41.924;25.562;2023-04-30T09:41:21;4.50;;;4.10;;
54899;SDS011;40801;41.924;25.562;2023-04-30T09:43:48;4.93;;;4.38;;
54899;SDS011;40801;41.924;25.562;2023-04-30T09:46:13;5.35;;;4.30;;
54899;SDS011;40801;41.924;25.562;2023-04-30T09:48:42;3.92;;;3.60;;
54899;SDS011;40801;41.924;25.562;2023-04-30T09:51:09;6.90;;;4.38;;
54899;SDS011;40801;41.924;25.562;2023-04-30T09:53:39;4.68;;;4.00;;
54899;SDS011;40801;41.924;25.562;2023-04-30T09:56:07;4.55;;;4.15;;
54899;SDS011;40801;41.924;25.562;2023-04-30T09:58:35;6.57;;;3.70;;
54899;SDS011;40801;41.924;25.562;2023-04-30T10:01:05;6.78;;;4.30;;
54899;SDS011;40801;41.924;25.562;2023-04-30T10:03:32;3.75;;;3.55;;
54899;SDS011;40801;41.924;25.562;2023-04-30T10:05:59;3.30;;;3.10;;
54899;SDS011;40801;41.924;25.562;2023-04-30T10:08:26;4.05;;;3.50;;
54899;SDS011;40801;41.924;25.562;2023-04-30T10:13:30;3.10;;;2.90;;
54899;SDS011;40801;41.924;25.562;2023-04-30T10:16:00;4.18;;;3.70;;
54899;SDS011;40801;41.924;25.562;2023-04-30T10:18:48;4.47;;;3.17;;
54899;SDS011;40801;41.924;25.562;2023-04-30T10:21:16;3.33;;;2.90;;
54899;SDS011;40801;41.924;25.562;2023-04-30T10:26:10;2.80;;;2.60;;
54899;SDS011;40801;41.924;25.562;2023-04-30T10:28:37;4.45;;;3.00;;
54899;SDS011;40801;41.924;25.562;2023-04-30T10:31:03;2.78;;;2.58;;
54899;SDS011;40801;41.924;25.562;2023-04-30T10:33:40;3.05;;;2.85;;
54899;SDS011;40801;41.924;25.562;2023-04-30T10:36:13;4.38;;;4.00;;
54899;SDS011;40801;41.924;25.562;2023-04-30T10:38:47;3.38;;;3.05;;
54899;SDS011;40801;41.924;25.562;2023-04-30T10:41:12;2.75;;;2.65;;
54899;SDS011;40801;41.924;25.562;2023-04-30T10:43:39;2.45;;;2.20;;
54899;SDS011;40801;41.924;25.562;2023-04-30T10:46:05;3.60;;;2.78;;
54899;SDS011;40801;41.924;25.562;2023-04-30T10:48:33;2.67;;;2.47;;
54899;SDS011;40801;41.924;25.562;2023-04-30T10:51:00;3.05;;;2.85;;
54899;SDS011;40801;41.924;25.562;2023-04-30T10:53:28;2.95;;;2.78;;
54899;SDS011;40801;41.924;25.562;2023-04-30T10:56:02;3.13;;;2.35;;
54899;SDS011;40801;41.924;25.562;2023-04-30T10:58:33;3.47;;;2.78;;
54899;SDS011;40801;41.924;25.562;2023-04-30T11:01:07;4.10;;;2.70;;
54899;SDS011;40801;41.924;25.562;2023-04-30T11:03:34;2.83;;;2.63;;
54899;SDS011;40801;41.924;25.562;2023-04-30T11:06:06;3.33;;;3.13;;
54899;SDS011;40801;41.924;25.562;2023-04-30T11:08:36;2.63;;;2.53;;
54899;SDS011;40801;41.924;25.562;2023-04-30T11:11:02;3.00;;;2.80;;
54899;SDS011;40801;41.924;25.562;2023-04-30T11:16:33;3.00;;;2.78;;
54899;SDS011;40801;41.924;25.562;2023-04-30T11:19:05;2.47;;;2.30;;
54899;SDS011;40801;41.924;25.562;2023-04-30T11:21:33;2.88;;;2.58;;
54899;SDS011;40801;41.924;25.562;2023-04-30T11:24:04;2.67;;;2.47;;
54899;SDS011;40801;41.924;25.562;2023-04-30T11:27:01;2.38;;;2.28;;
54899;SDS011;40801;41.924;25.562;2023-04-30T11:29:29;2.75;;;2.55;;
54899;SDS011;40801;41.924;25.562;2023-04-30T11:31:59;2.40;;;2.28;;
54899;SDS011;40801;41.924;25.562;2023-04-30T11:34:25;3.05;;;1.92;;
54899;SDS011;40801;41.924;25.562;2023-04-30T11:36:51;2.78;;;2.50;;
54899;SDS011;40801;41.924;25.562;2023-04-30T11:39:22;4.25;;;2.35;;
54899;SDS011;40801;41.924;25.562;2023-04-30T11:41:49;5.43;;;2.83;;
54899;SDS011;40801;41.924;25.562;2023-04-30T11:44:21;3.15;;;2.65;;
54899;SDS011;40801;41.924;25.562;2023-04-30T11:46:50;3.83;;;2.63;;
54899;SDS011;40801;41.924;25.562;2023-04-30T11:49:16;2.30;;;2.10;;
54899;SDS011;40801;41.924;25.562;2023-04-30T11:51:41;2.45;;;2.20;;
54899;SDS011;40801;41.924;25.562;2023-04-30T11:54:07;2.72;;;2.30;;
54899;SDS011;40801;41.924;25.562;2023-04-30T11:56:36;2.35;;;2.20;;
54899;SDS011;40801;41.924;25.562;2023-04-30T11:59:08;2.42;;;2.05;;
54899;SDS011;40801;41.924;25.562;2023-04-30T12:01:34;2.22;;;2.10;;
54899;SDS011;40801;41.924;25.562;2023-04-30T12:04:01;1.90;;;1.80;;
54899;SDS011;40801;41.924;25.562;2023-04-30T12:06:28;2.30;;;2.00;;
54899;SDS011;40801;41.924;25.562;2023-04-30T12:08:55;2.50;;;2.30;;
54899;SDS011;40801;41.924;25.562;2023-04-30T12:11:23;2.15;;;1.85;;
54899;SDS011;40801;41.924;25.562;2023-04-30T12:13:53;2.85;;;2.65;;
54899;SDS011;40801;41.924;25.562;2023-04-30T12:16:20;2.88;;;2.67;;
54899;SDS011;40801;41.924;25.562;2023-04-30T12:18:46;3.10;;;2.40;;
54899;SDS011;40801;41.924;25.562;2023-04-30T12:21:11;2.90;;;2.63;;
54899;SDS011;40801;41.924;25.562;2023-04-30T12:23:38;4.20;;;3.90;;
54899;SDS011;40801;41.924;25.562;2023-04-30T12:26:03;2.85;;;2.65;;
54899;SDS011;40801;41.924;25.562;2023-04-30T12:28:29;2.28;;;2.10;;
54899;SDS011;40801;41.924;25.562;2023-04-30T12:30:54;2.47;;;2.28;;
54899;SDS011;40801;41.924;25.562;2023-04-30T12:33:20;3.00;;;2.70;;
54899;SDS011;40801;41.924;25.562;2023-04-30T12:35:45;3.10;;;2.90;;
54899;SDS011;40801;41.924;25.562;2023-04-30T12:38:14;2.28;;;2.17;;
54899;SDS011;40801;41.924;25.562;2023-04-30T12:40:45;2.40;;;2.20;;
54899;SDS011;40801;41.924;25.562;2023-04-30T12:43:13;5.25;;;4.75;;
54899;SDS011;40801;41.924;25.562;2023-04-30T12:48:11;5.78;;;2.88;;
54899;SDS011;40801;41.924;25.562;2023-04-30T12:50:37;3.53;;;2.90;;
54899;SDS011;40801;41.924;25.562;2023-04-30T12:53:06;2.70;;;2.50;;
54899;SDS011;40801;41.924;25.562;2023-04-30T12:55:32;3.70;;;2.67;;
54899;SDS011;40801;41.924;25.562;2023-04-30T12:58:16;2.58;;;2.38;;
54899;SDS011;40801;41.924;25.562;2023-04-30T13:03:09;4.82;;;4.45;;
54899;SDS011;40801;41.924;25.562;2023-04-30T13:05:44;4.32;;;3.40;;
54899;SDS011;40801;41.924;25.562;2023-04-30T13:08:16;7.07;;;6.43;;
54899;SDS011;40801;41.924;25.562;2023-04-30T13:10:43;3.67;;;2.83;;
54899;SDS011;40801;41.924;25.562;2023-04-30T13:13:09;3.08;;;2.70;;
54899;SDS011;40801;41.924;25.562;2023-04-30T13:15:35;3.55;;;3.25;;
54899;SDS011;40801;41.924;25.562;2023-04-30T13:18:01;2.97;;;2.78;;
54899;SDS011;40801;41.924;25.562;2023-04-30T13:20:27;3.78;;;2.70;;
54899;SDS011;40801;41.924;25.562;2023-04-30T13:22:53;2.40;;;2.30;;
54899;SDS011;40801;41.924;25.562;2023-04-30T13:25:18;4.07;;;2.47;;
54899;SDS011;40801;41.924;25.562;2023-04-30T13:27:44;4.97;;;4.57;;
54899;SDS011;40801;41.924;25.562;2023-04-30T13:30:09;2.83;;;2.63;;
54899;SDS011;40801;41.924;25.562;2023-04-30T13:32:35;4.28;;;3.85;;
54899;SDS011;40801;41.924;25.562;2023-04-30T13:35:01;3.30;;;3.10;;
54899;SDS011;40801;41.924;25.562;2023-04-30T13:37:27;3.28;;;2.95;;
54899;SDS011;40801;41.924;25.562;2023-04-30T13:39:55;2.92;;;2.63;;
54899;SDS011;40801;41.924;25.562;2023-04-30T13:42:21;5.47;;;3.55;;
54899;SDS011;40801;41.924;25.562;2023-04-30T13:44:46;3.00;;;2.80;;
54899;SDS011;40801;41.924;25.562;2023-04-30T13:47:14;3.85;;;2.90;;
54899;SDS011;40801;41.924;25.562;2023-04-30T13:49:39;3.72;;;3.00;;
54899;SDS011;40801;41.924;25.562;2023-04-30T13:52:05;4.72;;;4.35;;
54899;SDS011;40801;41.924;25.562;2023-04-30T13:54:30;6.88;;;6.15;;
54899;SDS011;40801;41.924;25.562;2023-04-30T13:56:56;6.20;;;3.03;;
54899;SDS011;40801;41.924;25.562;2023-04-30T13:59:23;3.00;;;2.80;;
54899;SDS011;40801;41.924;25.562;2023-04-30T14:01:49;3.42;;;3.13;;
54899;SDS011;40801;41.924;25.562;2023-04-30T14:04:15;3.67;;;2.50;;
54899;SDS011;40801;41.924;25.562;2023-04-30T14:06:40;7.75;;;6.68;;
54899;SDS011;40801;41.924;25.562;2023-04-30T14:09:06;2.38;;;2.28;;
54899;SDS011;40801;41.924;25.562;2023-04-30T14:11:31;3.03;;;2.65;;
54899;SDS011;40801;41.924;25.562;2023-04-30T14:13:57;6.13;;;5.60;;
54899;SDS011;40801;41.924;25.562;2023-04-30T14:16:22;3.67;;;3.47;;
54899;SDS011;40801;41.924;25.562;2023-04-30T14:18:49;2.60;;;2.40;;
54899;SDS011;40801;41.924;25.562;2023-04-30T14:21:14;2.30;;;2.20;;
54899;SDS011;40801;41.924;25.562;2023-04-30T14:23:39;2.80;;;2.70;;
54899;SDS011;40801;41.924;25.562;2023-04-30T14:26:05;2.63;;;2.42;;
54899;SDS011;40801;41.924;25.562;2023-04-30T14:28:31;2.47;;;2.38;;
54899;SDS011;40801;41.924;25.562;2023-04-30T14:30:57;2.15;;;2.05;;
54899;SDS011;40801;41.924;25.562;2023-04-30T14:33:22;7.03;;;5.38;;
54899;SDS011;40801;41.924;25.562;2023-04-30T14:35:47;3.42;;;3.13;;
54899;SDS011;40801;41.924;25.562;2023-04-30T14:38:13;3.05;;;2.75;;
54899;SDS011;40801;41.924;25.562;2023-04-30T14:40:39;2.42;;;2.30;;
54899;SDS011;40801;41.924;25.562;2023-04-30T14:43:05;9.65;;;8.75;;
54899;SDS011;40801;41.924;25.562;2023-04-30T14:45:33;3.00;;;2.60;;
54899;SDS011;40801;41.924;25.562;2023-04-30T14:47:59;3.33;;;3.03;;
54899;SDS011;40801;41.924;25.562;2023-04-30T14:50:25;3.90;;;3.47;;
54899;SDS011;40801;41.924;25.562;2023-04-30T14:52:51;3.47;;;3.17;;
54899;SDS011;40801;41.924;25.562;2023-04-30T14:55:16;4.32;;;3.92;;
54899;SDS011;40801;41.924;25.562;2023-04-30T14:57:41;3.22;;;3.03;;